Time;durP1;ratioP1;P1;durP2;ratioP2;P2;SDS_P1;SDS_P2;PMS_P1;PMS_P2;Temp;Humidity;BMP_temperature;BMP_pressure;BME280_temperature;BME280_humidity;BME280_pressure;Samples;Min_cycle;Max_cycle;Signal;HPM_P1;HPM_P2
2022/02/12 00:00:56;;;;;;;10.60;3.67;;;0.60;99.90;;;;;;4998876;28;20057;-73
2022/02/12 00:03:24;;;;;;;6.57;2.37;;;0.60;99.90;;;;;;4982043;28;20049;-73
2022/02/12 00:05:50;;;;;;;7.67;2.77;;;0.50;99.90;;;;;;4984067;28;20042;-73
2022/02/12 00:08:17;;;;;;;8.43;2.80;;;0.50;99.90;;;;;;4994690;28;20375;-73
2022/02/12 00:10:43;;;;;;;9.10;2.90;;;0.50;99.90;;;;;;4980957;28;21296;-73
2022/02/12 00:13:11;;;;;;;11.83;3.63;;;0.50;99.90;;;;;;4999653;28;20031;-73
2022/02/12 00:15:39;;;;;;;8.67;3.40;;;0.50;99.90;;;;;;4997822;28;20034;-73
2022/02/12 00:18:06;;;;;;;10.00;3.47;;;0.40;99.90;;;;;;4978597;28;20038;-73
2022/02/12 00:20:33;;;;;;;9.77;3.47;;;0.40;99.90;;;;;;4998556;28;20038;-73
2022/02/12 00:22:59;;;;;;;8.67;3.60;;;0.40;99.90;;;;;;4996558;28;20092;-73
2022/02/12 00:25:26;;;;;;;9.27;3.77;;;0.40;99.90;;;;;;4974805;28;20057;-73
2022/02/12 00:27:52;;;;;;;11.17;3.93;;;0.40;99.90;;;;;;4962373;28;20401;-73
2022/02/12 00:30:19;;;;;;;10.63;4.37;;;0.30;99.90;;;;;;4997118;28;20026;-73
2022/02/12 00:32:45;;;;;;;8.37;3.70;;;0.30;99.90;;;;;;4996736;28;20037;-73
2022/02/12 00:35:12;;;;;;;8.53;3.50;;;0.30;99.90;;;;;;4997814;28;20068;-73
2022/02/12 00:37:38;;;;;;;7.80;3.30;;;0.30;99.90;;;;;;4995721;28;20042;-73
2022/02/12 00:40:05;;;;;;;14.27;4.37;;;0.30;99.90;;;;;;4999412;28;20030;-73
2022/02/12 00:42:31;;;;;;;13.97;4.67;;;0.20;99.90;;;;;;4976627;28;20045;-73
2022/02/12 00:44:59;;;;;;;14.07;3.87;;;0.20;99.90;;;;;;4997032;28;20385;-73
2022/02/12 00:47:28;;;;;;;12.00;4.67;;;0.30;99.90;;;;;;4994869;28;20042;-75
2022/02/12 00:49:55;;;;;;;10.63;4.57;;;0.20;99.90;;;;;;4995418;28;20041;-73
2022/02/12 00:52:21;;;;;;;10.80;4.17;;;0.20;99.90;;;;;;4996974;28;20473;-73
2022/02/12 00:54:48;;;;;;;8.93;3.47;;;0.20;99.90;;;;;;4963426;28;20038;-73
2022/02/12 00:57:15;;;;;;;10.10;4.20;;;0.20;99.90;;;;;;4995898;28;20505;-74
2022/02/12 00:59:41;;;;;;;10.67;3.40;;;0.20;99.90;;;;;;4980242;28;20394;-74
2022/02/12 01:02:07;;;;;;;14.27;3.83;;;0.20;99.90;;;;;;4993678;28;20051;-76
2022/02/12 01:04:34;;;;;;;9.47;3.80;;;0.10;99.90;;;;;;4973190;28;20053;-75
2022/02/12 01:07:00;;;;;;;10.13;4.83;;;0.10;99.90;;;;;;4977232;28;20034;-74
2022/02/12 01:09:27;;;;;;;11.57;3.93;;;0.10;99.90;;;;;;4992841;28;20043;-76
2022/02/12 01:11:53;;;;;;;12.37;4.17;;;0.10;99.90;;;;;;4978903;28;20037;-74
2022/02/12 01:14:20;;;;;;;11.17;4.70;;;0.00;99.90;;;;;;4977213;28;20045;-75
2022/02/12 01:16:47;;;;;;;10.80;4.33;;;0.10;99.90;;;;;;4992473;28;20053;-74
2022/02/12 01:19:14;;;;;;;13.70;4.20;;;0.00;99.90;;;;;;4999576;28;20033;-74
2022/02/12 01:21:41;;;;;;;12.17;4.03;;;0.10;99.90;;;;;;4996117;28;20045;-75
2022/02/12 01:24:07;;;;;;;8.00;3.20;;;0.00;99.90;;;;;;4998266;28;20041;-75
2022/02/12 01:26:34;;;;;;;10.90;3.73;;;0.00;99.90;;;;;;4995427;28;20041;-76
2022/02/12 01:29:01;;;;;;;12.03;4.07;;;0.00;99.90;;;;;;4995356;28;20042;-75
2022/02/12 01:31:28;;;;;;;7.60;3.30;;;0.00;99.90;;;;;;4993480;28;20041;-73
2022/02/12 01:33:54;;;;;;;9.03;3.50;;;0.00;99.90;;;;;;4981528;28;20048;-74
2022/02/12 01:36:21;;;;;;;10.80;4.13;;;-0.10;99.90;;;;;;4965211;28;20034;-74
2022/02/12 01:38:47;;;;;;;10.03;3.60;;;0.00;99.90;;;;;;4993009;28;20033;-74
2022/02/12 01:41:13;;;;;;;9.60;3.93;;;-0.10;99.90;;;;;;4997426;28;20053;-74
2022/02/12 01:43:40;;;;;;;10.30;3.97;;;-0.10;99.90;;;;;;4979374;28;20038;-73
2022/02/12 01:46:06;;;;;;;13.07;3.97;;;-0.10;99.90;;;;;;4977185;28;20041;-74
2022/02/12 01:48:32;;;;;;;10.03;4.33;;;-0.10;99.90;;;;;;4988637;28;20068;-74
2022/02/12 01:51:02;;;;;;;11.47;4.07;;;-0.10;99.90;;;;;;4975388;28;20042;-74
2022/02/12 01:53:28;;;;;;;12.30;3.77;;;-0.10;99.90;;;;;;4994419;28;20033;-75
2022/02/12 01:55:55;;;;;;;7.57;3.67;;;-0.20;99.90;;;;;;4991861;28;20414;-73
2022/02/12 01:58:21;;;;;;;8.17;3.13;;;-0.20;99.90;;;;;;4942534;28;20030;-73
2022/02/12 02:00:48;;;;;;;10.73;3.53;;;-0.20;99.90;;;;;;4993291;28;20898;-74
2022/02/12 02:03:15;;;;;;;12.90;3.30;;;-0.20;99.90;;;;;;4959780;28;20394;-74
2022/02/12 02:05:41;;;;;;;7.80;3.40;;;-0.20;99.90;;;;;;4991844;28;20401;-73
2022/02/12 02:08:08;;;;;;;12.30;4.17;;;-0.20;99.90;;;;;;4988857;28;20478;-73
2022/02/12 02:10:34;;;;;;;8.90;3.50;;;-0.30;99.90;;;;;;4994811;28;20546;-72
2022/02/12 02:13:01;;;;;;;11.23;4.10;;;-0.30;99.90;;;;;;4978376;28;20041;-73
2022/02/12 02:15:27;;;;;;;10.53;3.33;;;-0.30;99.90;;;;;;4993918;28;20034;-73
2022/02/12 02:17:57;;;;;;;8.60;3.63;;;-0.30;99.90;;;;;;4990400;28;20368;-73
2022/02/12 02:20:24;;;;;;;7.20;3.67;;;-0.30;99.90;;;;;;4989537;28;20038;-73
2022/02/12 02:22:55;;;;;;;8.70;3.00;;;-0.30;99.90;;;;;;4976317;28;20030;-75
2022/02/12 02:25:22;;;;;;;8.17;3.60;;;-0.30;99.90;;;;;;4990208;28;20057;-74
2022/02/12 02:27:49;;;;;;;8.40;3.17;;;-0.30;99.90;;;;;;4970500;28;20038;-74
2022/02/12 02:30:21;;;;;;;10.00;3.47;;;-0.30;99.90;;;;;;4991900;28;20053;-74
2022/02/12 02:32:48;;;;;;;17.85;5.43;;;-0.40;99.90;;;;;;4972950;28;20037;-74
2022/02/12 02:35:19;;;;;;;13.00;5.40;;;-0.30;99.90;;;;;;4976529;28;20034;-73
2022/02/12 02:37:47;;;;;;;11.63;4.80;;;-0.40;99.90;;;;;;4972421;28;20030;-73
2022/02/12 02:40:16;;;;;;;9.80;3.87;;;-0.40;99.90;;;;;;4996263;28;20034;-74
2022/02/12 02:42:50;;;;;;;10.77;4.43;;;-0.40;99.90;;;;;;4980505;28;20034;-73
2022/02/12 02:45:17;;;;;;;11.03;4.07;;;-0.40;99.90;;;;;;4995752;28;20394;-73
2022/02/12 02:47:44;;;;;;;10.87;3.80;;;-0.40;99.90;;;;;;4975732;28;20049;-73
2022/02/12 02:56:00;;;;;;;15.73;4.70;;;-0.40;99.90;;;;;;4994465;28;20065;-73
2022/02/12 02:58:28;;;;;;;9.93;4.60;;;-0.40;99.90;;;;;;4958951;28;20045;-74
2022/02/12 03:00:55;;;;;;;11.93;4.03;;;-0.40;99.90;;;;;;4991213;28;20061;-73
2022/02/12 03:03:22;;;;;;;8.83;3.90;;;-0.40;99.90;;;;;;4991954;28;20046;-73
2022/02/12 03:05:48;;;;;;;9.23;3.60;;;-0.40;99.90;;;;;;4996259;28;20033;-73
2022/02/12 03:08:15;;;;;;;10.43;3.73;;;-0.40;99.90;;;;;;4993971;28;20038;-74
2022/02/12 03:10:41;;;;;;;9.03;3.67;;;-0.50;99.90;;;;;;4992532;28;20041;-73
2022/02/12 03:13:08;;;;;;;9.43;3.63;;;-0.50;99.90;;;;;;4995615;28;20042;-73
2022/02/12 03:15:40;;;;;;;8.43;4.23;;;-0.50;99.90;;;;;;4980773;28;20038;-75
2022/02/12 03:18:08;;;;;;;11.77;3.60;;;-0.50;99.90;;;;;;4992189;28;20026;-75
2022/02/12 03:20:35;;;;;;;7.77;3.57;;;-0.50;99.90;;;;;;4992862;28;20272;-74
2022/02/12 03:23:01;;;;;;;9.47;3.80;;;-0.50;99.90;;;;;;4982683;28;20031;-74
2022/02/12 03:25:28;;;;;;;9.53;3.90;;;-0.60;99.90;;;;;;4964399;28;20035;-75
2022/02/12 03:27:57;;;;;;;8.37;2.83;;;-0.60;99.90;;;;;;4995019;28;20418;-76
2022/02/12 03:30:29;;;;;;;8.27;3.50;;;-0.60;99.90;;;;;;4994593;28;20457;-75
2022/02/12 03:32:55;;;;;;;9.43;3.53;;;-0.60;99.90;;;;;;4992639;28;20022;-75
2022/02/12 03:35:28;;;;;;;7.67;3.37;;;-0.60;99.90;;;;;;4995663;28;20049;-75
2022/02/12 03:38:08;;;;;;;9.90;3.20;;;-0.60;99.90;;;;;;4975589;28;20141;-75
2022/02/12 03:40:36;;;;;;;10.00;3.40;;;-0.50;99.90;;;;;;4993785;28;20033;-75
2022/02/12 03:43:03;;;;;;;15.23;3.70;;;-0.50;99.90;;;;;;4997081;28;20034;-76
2022/02/12 03:45:30;;;;;;;8.80;4.20;;;-0.50;99.90;;;;;;4990211;28;20378;-74
2022/02/12 03:47:57;;;;;;;8.30;3.23;;;-0.50;99.90;;;;;;4992045;28;20054;-74
2022/02/12 03:50:24;;;;;;;8.27;3.20;;;-0.50;99.90;;;;;;4980575;28;20039;-76
2022/02/12 03:52:50;;;;;;;7.77;2.67;;;-0.60;99.90;;;;;;4994160;28;20022;-75
2022/02/12 03:55:17;;;;;;;10.03;3.07;;;-0.60;99.90;;;;;;4994063;28;20038;-75
2022/02/12 03:57:44;;;;;;;7.53;3.30;;;-0.60;99.90;;;;;;4977469;28;20037;-75
2022/02/12 04:00:12;;;;;;;19.00;5.13;;;-0.60;99.90;;;;;;4999086;28;20374;-74
2022/02/12 04:02:39;;;;;;;9.63;3.10;;;-0.60;99.90;;;;;;4997652;28;20065;-74
2022/02/12 04:05:06;;;;;;;8.10;3.30;;;-0.50;99.90;;;;;;4998576;28;20037;-75
2022/02/12 04:07:35;;;;;;;10.13;3.57;;;-0.50;99.90;;;;;;4977264;28;20485;-75
2022/02/12 04:10:03;;;;;;;8.23;3.47;;;-0.60;99.90;;;;;;4961893;28;20045;-75
2022/02/12 04:12:29;;;;;;;9.83;4.10;;;-0.60;99.90;;;;;;4986245;28;20034;-75
2022/02/12 04:14:56;;;;;;;8.53;3.23;;;-0.60;99.90;;;;;;4999678;28;20030;-76
2022/02/12 04:17:24;;;;;;;6.93;3.30;;;-0.50;99.90;;;;;;4968001;28;20045;-74
2022/02/12 04:19:52;;;;;;;8.17;3.50;;;-0.50;99.90;;;;;;4993956;28;20034;-75
2022/02/12 04:22:18;;;;;;;9.90;4.17;;;-0.50;99.90;;;;;;4961121;28;20037;-75
2022/02/12 04:24:45;;;;;;;9.90;3.23;;;-0.60;99.90;;;;;;4974387;28;20034;-76
2022/02/12 04:27:11;;;;;;;10.80;3.57;;;-0.60;99.90;;;;;;4992749;28;20386;-74
2022/02/12 04:29:40;;;;;;;10.47;2.97;;;-0.60;99.90;;;;;;4999382;28;20049;-76
2022/02/12 04:32:07;;;;;;;11.57;3.63;;;-0.60;99.90;;;;;;4995599;28;20450;-75
2022/02/12 04:34:33;;;;;;;15.03;4.33;;;-0.60;99.90;;;;;;4981598;28;20377;-73
2022/02/12 04:37:00;;;;;;;8.03;2.80;;;-0.60;99.90;;;;;;4979684;28;20043;-74
2022/02/12 04:39:26;;;;;;;6.97;3.20;;;-0.60;99.90;;;;;;4997509;28;20041;-73
2022/02/12 04:41:52;;;;;;;8.00;3.23;;;-0.60;99.90;;;;;;4980749;28;20128;-74
2022/02/12 04:44:19;;;;;;;6.93;2.67;;;-0.60;99.90;;;;;;4998741;28;20042;-74
2022/02/12 04:46:45;;;;;;;8.40;2.93;;;-0.70;99.90;;;;;;4977231;28;20505;-74
2022/02/12 04:49:12;;;;;;;10.17;3.40;;;-0.70;99.90;;;;;;4981152;28;20038;-73
2022/02/12 04:51:38;;;;;;;8.73;3.37;;;-0.70;99.90;;;;;;4996062;28;20034;-74
2022/02/12 04:54:05;;;;;;;7.77;2.53;;;-0.70;99.90;;;;;;4997800;28;20026;-74
2022/02/12 04:56:31;;;;;;;10.13;2.70;;;-0.70;99.90;;;;;;4973938;28;20026;-73
2022/02/12 04:58:58;;;;;;;14.70;2.90;;;-0.80;99.90;;;;;;4996582;28;20493;-75
2022/02/12 05:01:24;;;;;;;9.63;2.40;;;-0.80;99.90;;;;;;4994636;28;20054;-74
2022/02/12 05:03:52;;;;;;;7.77;3.23;;;-0.80;99.90;;;;;;4996298;28;20050;-74
2022/02/12 05:06:20;;;;;;;6.40;2.40;;;-0.80;99.90;;;;;;4978889;28;20042;-75
2022/02/12 05:08:47;;;;;;;11.50;3.73;;;-0.80;99.90;;;;;;4975072;28;20046;-74
2022/02/12 05:11:14;;;;;;;7.40;2.90;;;-0.80;99.90;;;;;;4978468;28;20038;-74
2022/02/12 05:13:40;;;;;;;10.40;2.60;;;-0.80;99.90;;;;;;4981242;28;20018;-73
2022/02/12 05:16:08;;;;;;;7.20;2.87;;;-0.80;99.90;;;;;;4984792;28;20046;-73
2022/02/12 05:18:34;;;;;;;8.67;2.70;;;-0.90;99.90;;;;;;4992118;28;20026;-74
2022/02/12 05:21:01;;;;;;;7.37;2.90;;;-0.90;99.90;;;;;;4999603;28;20092;-74
2022/02/12 05:23:27;;;;;;;8.80;2.83;;;-0.90;99.90;;;;;;4977771;28;20042;-73
2022/02/12 05:25:54;;;;;;;9.63;3.10;;;-0.90;99.90;;;;;;4998132;28;20027;-74
2022/02/12 05:28:22;;;;;;;7.77;2.93;;;-0.90;99.90;;;;;;4976938;28;20026;-74
2022/02/12 05:30:49;;;;;;;7.60;2.53;;;-0.90;99.90;;;;;;4981696;28;20042;-76
2022/02/12 05:33:15;;;;;;;9.63;3.17;;;-1.00;99.90;;;;;;4995529;28;20034;-74
2022/02/12 05:35:42;;;;;;;9.03;3.57;;;-1.00;99.90;;;;;;5000475;28;20030;-73
2022/02/12 05:38:08;;;;;;;8.17;2.67;;;-1.00;99.90;;;;;;4992703;28;20048;-74
2022/02/12 05:40:35;;;;;;;10.53;2.47;;;-1.00;99.90;;;;;;4994374;28;20042;-74
2022/02/12 05:43:02;;;;;;;6.87;2.70;;;-1.00;99.90;;;;;;4994398;28;20035;-75
2022/02/12 05:45:29;;;;;;;7.10;2.53;;;-1.00;99.90;;;;;;5000925;28;20046;-73
2022/02/12 05:47:55;;;;;;;10.83;3.37;;;-1.00;99.90;;;;;;4973613;28;20061;-74
2022/02/12 05:50:27;;;;;;;7.83;3.33;;;-1.00;99.90;;;;;;4997196;28;20034;-73
2022/02/12 05:52:54;;;;;;;8.90;2.40;;;-1.00;99.90;;;;;;4978635;28;20046;-74
2022/02/12 05:55:20;;;;;;;10.67;3.13;;;-1.10;99.90;;;;;;4998034;28;20026;-73
2022/02/12 05:57:47;;;;;;;9.27;3.37;;;-1.10;99.90;;;;;;4994769;28;20030;-74
2022/02/12 06:00:14;;;;;;;4.40;2.87;;;-1.10;99.90;;;;;;4981094;28;20034;-74
2022/02/12 06:02:40;;;;;;;7.20;3.30;;;-1.10;99.90;;;;;;4962844;28;20057;-74
2022/02/12 06:05:07;;;;;;;11.07;3.53;;;-1.10;99.90;;;;;;4979191;28;20414;-75
2022/02/12 06:07:33;;;;;;;10.07;3.90;;;-1.10;99.90;;;;;;4974980;28;20081;-74
2022/02/12 06:10:00;;;;;;;11.70;3.17;;;-1.10;99.90;;;;;;4996909;28;20041;-76
2022/02/12 06:12:28;;;;;;;7.93;2.80;;;-1.10;99.90;;;;;;4997474;28;20030;-76
2022/02/12 06:14:54;;;;;;;8.23;3.47;;;-1.10;99.90;;;;;;4994298;28;20434;-75
2022/02/12 06:17:21;;;;;;;5.43;2.27;;;-1.20;99.90;;;;;;4970141;28;20034;-74
2022/02/12 06:19:47;;;;;;;5.10;2.47;;;-1.20;99.90;;;;;;4975566;28;20037;-74
2022/02/12 06:22:14;;;;;;;10.17;3.03;;;-1.20;99.90;;;;;;4989217;28;20442;-74
2022/02/12 06:24:40;;;;;;;10.70;2.73;;;-1.20;99.90;;;;;;4978333;28;20057;-74
2022/02/12 06:27:06;;;;;;;11.30;2.97;;;-1.20;99.90;;;;;;4989352;28;20050;-74
2022/02/12 06:29:33;;;;;;;7.27;2.50;;;-1.20;99.90;;;;;;4991942;28;20050;-74
2022/02/12 06:31:59;;;;;;;9.40;3.20;;;-1.20;99.90;;;;;;4993969;28;20060;-74
2022/02/12 06:34:26;;;;;;;5.10;2.60;;;-1.20;99.90;;;;;;4956709;28;20038;-74
2022/02/12 06:36:52;;;;;;;8.20;3.07;;;-1.20;99.90;;;;;;4990162;28;20014;-75
2022/02/12 06:39:19;;;;;;;11.27;3.70;;;-1.20;99.90;;;;;;4972246;28;20049;-74
2022/02/12 06:41:45;;;;;;;7.33;2.83;;;-1.20;99.90;;;;;;4977399;28;20132;-74
2022/02/12 06:44:12;;;;;;;9.20;3.50;;;-1.30;99.90;;;;;;4990411;28;20405;-75
2022/02/12 06:46:38;;;;;;;10.50;3.90;;;-1.30;99.90;;;;;;4976080;28;20041;-75
2022/02/12 06:49:04;;;;;;;11.67;4.87;;;-1.20;99.90;;;;;;4970288;28;20031;-75
2022/02/12 06:51:31;;;;;;;12.10;4.50;;;-1.30;99.90;;;;;;4993623;28;20042;-75
2022/02/12 06:53:57;;;;;;;15.03;4.83;;;-1.20;99.90;;;;;;4975821;28;20034;-75
2022/02/12 06:56:24;;;;;;;15.60;4.47;;;-1.20;99.90;;;;;;4994153;28;20041;-75
2022/02/12 06:58:50;;;;;;;13.20;5.70;;;-1.20;99.90;;;;;;4990508;28;20298;-74
2022/02/12 07:01:17;;;;;;;15.57;5.73;;;-1.20;99.90;;;;;;4975976;28;20042;-75
2022/02/12 07:03:44;;;;;;;10.60;4.80;;;-1.20;99.90;;;;;;4994344;28;20034;-75
2022/02/12 07:06:10;;;;;;;9.93;4.77;;;-1.20;99.90;;;;;;4971203;28;20038;-74
2022/02/12 07:08:37;;;;;;;10.93;4.77;;;-1.20;99.90;;;;;;4970476;28;20390;-74
2022/02/12 07:11:03;;;;;;;11.27;4.47;;;-1.10;99.90;;;;;;4974031;28;20039;-74
2022/02/12 07:13:30;;;;;;;10.30;4.03;;;-1.10;99.90;;;;;;4975286;28;20030;-74
2022/02/12 07:15:59;;;;;;;8.70;3.50;;;-1.10;99.90;;;;;;4993814;28;20049;-74
2022/02/12 07:18:26;;;;;;;11.23;4.87;;;-1.10;99.90;;;;;;4990048;28;20038;-74
2022/02/12 07:20:52;;;;;;;9.23;4.57;;;-1.10;99.90;;;;;;4991265;28;20102;-74
2022/02/12 07:23:19;;;;;;;10.70;4.77;;;-1.10;99.90;;;;;;4989600;28;20041;-74
2022/02/12 07:25:45;;;;;;;13.63;4.73;;;-1.10;99.90;;;;;;4995600;28;20045;-74
2022/02/12 07:28:12;;;;;;;10.50;4.57;;;-1.10;99.90;;;;;;4991117;28;20230;-74
2022/02/12 07:30:41;;;;;;;11.80;4.30;;;-1.00;99.90;;;;;;4959603;28;20050;-74
2022/02/12 07:33:08;;;;;;;12.73;5.07;;;-1.00;99.90;;;;;;4995801;28;20034;-74
2022/02/12 07:35:34;;;;;;;12.30;5.17;;;-1.00;99.90;;;;;;4997363;28;20049;-74
2022/02/12 07:38:01;;;;;;;12.83;4.33;;;-1.00;99.90;;;;;;4996584;28;20026;-74
2022/02/12 07:40:28;;;;;;;12.30;3.87;;;-0.90;99.90;;;;;;4978531;28;20046;-74
2022/02/12 07:42:54;;;;;;;9.93;5.03;;;-0.90;99.90;;;;;;4979701;28;20381;-74
2022/02/12 07:45:21;;;;;;;13.27;4.50;;;-0.90;99.90;;;;;;4998667;28;20038;-74
2022/02/12 07:47:47;;;;;;;11.93;6.07;;;-0.90;99.90;;;;;;4996336;28;20022;-74
2022/02/12 07:50:15;;;;;;;9.97;4.77;;;-0.90;99.90;;;;;;4998333;28;20382;-74
2022/02/12 07:52:43;;;;;;;18.40;5.43;;;-0.80;99.90;;;;;;4994771;28;20022;-74
2022/02/12 07:55:14;;;;;;;16.13;6.10;;;-0.80;99.90;;;;;;4980120;28;20038;-75
2022/02/12 07:57:41;;;;;;;19.83;6.90;;;-0.70;99.90;;;;;;4964226;28;20129;-73
2022/02/12 08:00:08;;;;;;;15.93;5.57;;;-0.70;99.90;;;;;;4997167;28;20035;-73
2022/02/12 08:02:40;;;;;;;;;;;-0.60;99.90;;;;;;4998125;28;20046;-73
2022/02/12 08:05:08;;;;;;;14.33;4.93;;;-0.60;99.90;;;;;;4984274;28;20404;-73
2022/02/12 08:07:37;;;;;;;21.73;6.13;;;-0.50;99.90;;;;;;4958542;28;20355;-73
2022/02/12 08:12:52;;;;;;;14.80;6.30;;;-0.40;99.90;;;;;;4974085;28;20026;-73
2022/02/12 08:15:19;;;;;;;16.13;6.27;;;-0.30;99.90;;;;;;4981676;28;20488;-73
2022/02/12 08:17:45;;;;;;;16.47;6.23;;;-0.30;99.90;;;;;;4993975;28;20040;-73
2022/02/12 08:20:12;;;;;;;15.50;5.63;;;-0.30;99.90;;;;;;4981496;28;20401;-73
2022/02/12 08:22:39;;;;;;;14.73;5.13;;;-0.30;99.90;;;;;;4980540;28;20517;-73
2022/02/12 08:25:06;;;;;;;11.10;4.90;;;-0.30;99.90;;;;;;4998646;28;20346;-74
2022/02/12 08:27:33;;;;;;;13.27;4.47;;;-0.20;99.90;;;;;;4992042;28;20042;-74
2022/02/12 08:30:00;;;;;;;11.73;5.37;;;-0.10;99.90;;;;;;4974495;28;20053;-73
2022/02/12 08:32:27;;;;;;;16.83;6.30;;;0.00;99.90;;;;;;4996564;28;20034;-74
2022/02/12 08:34:54;;;;;;;13.07;5.23;;;0.00;99.90;;;;;;4980750;28;20110;-74
2022/02/12 08:37:21;;;;;;;14.03;6.33;;;0.10;99.90;;;;;;4996352;28;20032;-74
2022/02/12 08:39:49;;;;;;;22.40;7.77;;;0.20;99.90;;;;;;4994300;28;20058;-74
2022/02/12 08:42:20;;;;;;;21.10;7.17;;;0.30;99.90;;;;;;4981507;28;20034;-73
2022/02/12 08:44:48;;;;;;;22.07;7.13;;;0.40;99.90;;;;;;4975072;28;20482;-76
2022/02/12 08:47:14;;;;;;;25.93;6.43;;;0.50;99.90;;;;;;4992168;28;20045;-75
2022/02/12 08:49:41;;;;;;;14.57;5.93;;;0.50;99.90;;;;;;4994382;28;20398;-75
2022/02/12 08:52:08;;;;;;;14.23;5.03;;;0.60;99.90;;;;;;4966470;28;20082;-75
2022/02/12 08:54:35;;;;;;;14.67;5.00;;;0.70;99.90;;;;;;4996166;28;20386;-75
2022/02/12 08:57:04;;;;;;;13.97;5.17;;;0.70;99.90;;;;;;4989440;28;20057;-75
2022/02/12 08:59:31;;;;;;;14.50;5.30;;;0.80;99.90;;;;;;4991639;28;20035;-75
2022/02/12 09:01:57;;;;;;;14.10;4.70;;;0.80;99.90;;;;;;4974520;28;20042;-74
2022/02/12 09:04:24;;;;;;;20.20;5.50;;;0.90;99.90;;;;;;4979824;28;20045;-74
2022/02/12 09:06:50;;;;;;;8.63;3.27;;;1.00;99.90;;;;;;4991921;28;20049;-74
2022/02/12 09:09:17;;;;;;;13.87;5.17;;;1.10;99.90;;;;;;4990404;28;20035;-73
2022/02/12 09:11:45;;;;;;;14.17;4.57;;;1.10;99.90;;;;;;4974831;28;20057;-73
2022/02/12 09:14:12;;;;;;;10.23;3.60;;;1.20;99.90;;;;;;4991858;28;20022;-74
2022/02/12 09:16:40;;;;;;;15.50;4.40;;;1.30;99.90;;;;;;4992139;28;20525;-73
2022/02/12 09:19:07;;;;;;;13.10;4.73;;;1.40;99.90;;;;;;4992281;28;20034;-73
2022/02/12 09:21:34;;;;;;;12.53;4.30;;;1.50;99.90;;;;;;4975137;28;20081;-73
2022/02/12 09:24:01;;;;;;;10.83;3.97;;;1.60;99.90;;;;;;4989085;28;20037;-74
2022/02/12 09:26:32;;;;;;;12.60;4.17;;;1.70;99.90;;;;;;4974440;28;20038;-74
2022/02/12 09:29:04;;;;;;;17.03;5.30;;;1.80;99.90;;;;;;4989559;28;20039;-74
2022/02/12 09:31:31;;;;;;;13.20;4.65;;;1.90;99.90;;;;;;4991087;28;20041;-75
2022/02/12 09:33:58;;;;;;;16.50;4.33;;;2.00;99.90;;;;;;4976662;28;20414;-75
2022/02/12 09:36:24;;;;;;;13.93;4.27;;;2.10;99.90;;;;;;4974045;28;20041;-75
2022/02/12 09:38:53;;;;;;;10.63;3.77;;;2.20;99.90;;;;;;4977104;28;20031;-75
2022/02/12 09:41:24;;;;;;;11.73;3.70;;;2.30;99.90;;;;;;4993623;28;20042;-75
2022/02/12 09:43:53;;;;;;;18.90;4.17;;;2.40;99.90;;;;;;4978492;28;20046;-75
2022/02/12 09:46:31;;;;;;;13.07;4.00;;;2.50;99.90;;;;;;4990863;28;20045;-75
2022/02/12 09:48:59;;;;;;;14.77;4.00;;;2.70;99.90;;;;;;4972003;28;20069;-75
2022/02/12 09:51:28;;;;;;;12.03;3.37;;;2.70;99.90;;;;;;4990748;28;20034;-75
2022/02/12 09:53:55;;;;;;;10.30;3.33;;;2.80;99.90;;;;;;4988480;28;20030;-75
2022/02/12 09:56:22;;;;;;;13.90;3.50;;;2.90;99.90;;;;;;4993614;28;20034;-75
2022/02/12 09:58:49;;;;;;;13.53;3.90;;;3.00;99.90;;;;;;4988998;28;20030;-75
2022/02/12 10:01:17;;;;;;;14.70;4.47;;;3.20;99.90;;;;;;4975728;28;20062;-75
2022/02/12 10:03:43;;;;;;;10.00;3.30;;;3.30;99.90;;;;;;4975074;28;20034;-75
2022/02/12 10:06:11;;;;;;;11.77;3.13;;;3.40;99.90;;;;;;4994005;28;20061;-75
2022/02/12 10:08:39;;;;;;;14.07;3.50;;;3.50;99.90;;;;;;4987276;28;20043;-75
2022/02/12 10:11:20;;;;;;;18.07;4.80;;;3.60;99.90;;;;;;4994495;28;20050;-75
2022/02/12 10:13:47;;;;;;;17.53;4.43;;;3.70;99.90;;;;;;4992693;28;20049;-75
2022/02/12 10:16:13;;;;;;;12.53;3.60;;;3.90;99.90;;;;;;4965470;28;20034;-75
2022/02/12 10:18:40;;;;;;;13.70;3.77;;;4.10;99.90;;;;;;4976183;28;20042;-75
2022/02/12 10:21:08;;;;;;;10.30;2.67;;;4.40;99.90;;;;;;4976614;28;20045;-75
2022/02/12 10:23:39;;;;;;;10.02;2.38;;;4.70;99.90;;;;;;4994538;28;20046;-75
2022/02/12 10:26:14;;;;;;;12.80;3.70;;;5.00;99.90;;;;;;4978659;28;20046;-75
2022/02/12 10:28:46;;;;;;;10.57;2.97;;;5.40;99.90;;;;;;4989773;28;20034;-75
2022/02/12 10:31:14;;;;;;;14.80;2.88;;;5.80;99.90;;;;;;4975359;28;20401;-76
2022/02/12 10:33:58;;;;;;;8.43;2.50;;;6.10;99.90;;;;;;4995231;28;20363;-76
2022/02/12 10:36:26;;;;;;;6.85;1.60;;;6.40;99.90;;;;;;4994849;28;20382;-76
2022/02/12 10:38:54;;;;;;;14.98;2.15;;;6.60;99.90;;;;;;4988992;28;20037;-76
2022/02/12 10:41:23;;;;;;;11.52;2.78;;;6.70;99.90;;;;;;4979996;28;20034;-76
2022/02/12 10:43:54;;;;;;;11.30;2.22;;;6.90;99.90;;;;;;4971241;28;20405;-76
2022/02/12 10:46:22;;;;;;;11.80;2.15;;;7.10;99.90;;;;;;4977113;28;20038;-76
2022/02/12 10:48:53;;;;;;;14.05;2.72;;;7.30;99.90;;;;;;4938103;28;20047;-76
2022/02/12 10:51:21;;;;;;;12.27;2.05;;;7.60;99.90;;;;;;4997080;28;20041;-76
2022/02/12 10:54:01;;;;;;;10.27;2.33;;;8.00;99.90;;;;;;4976204;28;20026;-75
2022/02/12 10:56:57;;;;;;;13.55;2.63;;;8.30;99.90;;;;;;4980047;28;20027;-77
2022/02/12 10:59:24;;;;;;;10.48;1.98;;;8.60;99.90;;;;;;4970939;28;20057;-76
2022/02/12 11:01:52;;;;;;;9.23;1.98;;;8.90;99.90;;;;;;4974119;28;20062;-74
2022/02/12 11:04:19;;;;;;;6.38;1.33;;;9.10;99.90;;;;;;4990367;28;20537;-76
2022/02/12 11:06:47;;;;;;;10.45;2.08;;;9.30;99.90;;;;;;4974617;28;20053;-78
2022/02/12 11:09:15;;;;;;;16.23;6.13;;;9.30;99.90;;;;;;4987532;28;20061;-79
2022/02/12 11:11:42;;;;;;;14.77;5.18;;;9.00;99.90;;;;;;4958816;28;20053;-78
2022/02/12 11:14:10;;;;;;;12.07;2.83;;;8.80;99.90;;;;;;4992847;28;20030;-79
2022/02/12 11:16:38;;;;;;;9.10;2.30;;;8.60;99.90;;;;;;4973367;28;20030;-76
2022/02/12 11:19:05;;;;;;;10.80;3.10;;;8.50;99.90;;;;;;4990519;28;20042;-77
2022/02/12 11:21:37;;;;;;;10.95;2.60;;;8.50;99.90;;;;;;4976521;28;20035;-77
2022/02/12 11:24:14;;;;;;;14.57;5.90;;;8.60;99.90;;;;;;4970474;28;20038;-75
2022/02/12 11:26:45;;;;;;;13.57;2.97;;;8.50;99.90;;;;;;4987477;28;20288;-74
2022/02/12 11:29:31;;;;;;;8.32;2.00;;;8.20;99.90;;;;;;4988275;28;20043;-75
2022/02/12 11:32:11;;;;;;;9.15;2.08;;;8.00;99.90;;;;;;4976411;28;20049;-76
2022/02/12 11:35:09;;;;;;;11.05;2.10;;;7.80;99.90;;;;;;4962770;28;20026;-77
2022/02/12 11:37:40;;;;;;;11.95;2.05;;;7.60;99.90;;;;;;4981018;28;20035;-76
2022/02/12 11:40:14;;;;;;;11.23;1.98;;;7.50;99.90;;;;;;4989864;28;20026;-76
2022/02/12 11:43:01;;;;;;;9.20;1.65;;;7.40;99.90;;;;;;4975622;28;20505;-76
2022/02/12 11:45:29;;;;;;;11.90;2.20;;;7.30;99.90;;;;;;4986193;28;20030;-77
2022/02/12 11:48:25;;;;;;;7.90;1.70;;;7.20;99.90;;;;;;4990146;28;20389;-76
2022/02/12 11:51:04;;;;;;;10.80;1.95;;;7.00;99.90;;;;;;4990067;28;20367;-75
2022/02/12 11:53:33;;;;;;;12.05;2.00;;;7.00;99.90;;;;;;4993140;28;20041;-75
2022/02/12 11:56:19;;;;;;;8.85;1.63;;;6.90;99.90;;;;;;4994848;28;20026;-74
2022/02/12 11:58:46;;;;;;;7.03;1.45;;;6.80;99.90;;;;;;4974092;28;20038;-76
2022/02/12 12:01:21;;;;;;;8.00;2.42;;;6.70;99.90;;;;;;4978233;28;20050;-75
2022/02/12 12:04:15;;;;;;;12.55;1.70;;;6.60;99.90;;;;;;4987967;28;20382;-75
2022/02/12 12:07:02;;;;;;;9.05;1.50;;;6.60;99.90;;;;;;4957444;28;20046;-75
2022/02/12 12:09:31;;;;;;;8.23;2.10;;;6.60;99.90;;;;;;4976265;28;20041;-75
2022/02/12 12:12:19;;;;;;;9.05;1.38;;;6.60;99.90;;;;;;4995160;28;20062;-75
2022/02/12 12:14:48;;;;;;;5.90;1.02;;;6.60;99.90;;;;;;4989692;28;20099;-76
2022/02/12 12:17:23;;;;;;;6.28;1.20;;;6.70;99.90;;;;;;4993516;28;20478;-75
2022/02/12 12:19:51;;;;;;;9.07;1.10;;;6.80;99.90;;;;;;4999081;28;20038;-76
2022/02/12 12:22:20;;;;;;;8.95;2.30;;;7.20;99.90;;;;;;4995825;28;20045;-75
2022/02/12 12:24:47;;;;;;;7.53;1.23;;;7.90;99.90;;;;;;4998118;28;20034;-76
2022/02/12 12:27:16;;;;;;;9.80;1.33;;;8.70;99.90;;;;;;4957806;28;20061;-74
2022/02/12 12:32:31;;;;;;;8.85;1.08;;;10.00;99.90;;;;;;4992477;28;20038;-73
2022/02/12 12:35:03;;;;;;;9.57;1.13;;;9.70;99.90;;;;;;4979038;28;20038;-75
2022/02/12 12:37:34;;;;;;;6.22;1.15;;;9.30;99.90;;;;;;4996016;28;20271;-76
2022/02/12 12:40:03;;;;;;;10.00;1.77;;;8.80;99.90;;;;;;4982945;28;20034;-76
2022/02/12 12:42:30;;;;;;;5.53;0.80;;;8.50;99.90;;;;;;4979450;28;20038;-76
2022/02/12 12:45:00;;;;;;;9.15;1.40;;;8.20;99.90;;;;;;4979076;28;20042;-74
2022/02/12 12:47:28;;;;;;;10.68;1.38;;;8.00;99.90;;;;;;4988389;28;20428;-77
2022/02/12 12:49:57;;;;;;;7.82;1.85;;;7.90;99.90;;;;;;4961751;28;20049;-75
2022/02/12 12:52:27;;;;;;;7.82;2.25;;;7.80;99.90;;;;;;4992590;28;20394;-75
2022/02/12 12:55:06;;;;;;;9.80;1.85;;;7.70;99.90;;;;;;4993325;28;20034;-75
2022/02/12 12:57:39;;;;;;;9.15;2.35;;;7.60;99.90;;;;;;4986484;28;20039;-74
2022/02/12 13:00:06;;;;;;;;;;;7.50;99.90;;;;;;4978264;28;20014;-75
2022/02/12 13:02:38;;;;;;;9.25;1.75;;;7.40;99.90;;;;;;4990482;28;19921;-75